Ojai, California
Current Conditions -  °F | °C
As of 12:51 PM on Thursday 18 Dec 2014 (Local Time) from KOXR Reporting Station
Overcast Overcast  
Wind Chill: 61°   Ceiling: 3700
Heat Index: 61°   Visibility: 10mi
Dew Point: 46°   Wind: 7mph
Humidity: 58%   Direction: 80°E
Pressure: 30.15"   Gusts: NA
Location:  34.44°N, 119.24°W
Report Text: KOXR 182051Z 08006KT 10SM OVC037 16/08 A3015 RMK AO2 SLP208 60000 T01610078 58020
Loading
Personal Weather Stations






























Interactive Weather Map New forecast layout! Learn more

10-Day Weather Forecast

Advertisements
Track Severe Weather on mobile